createdAt,value
2018-04-15T00:00:45.988Z,99.90
2018-04-15T00:03:13.456Z,99.90
2018-04-15T00:05:40.956Z,99.90
2018-04-15T00:08:08.438Z,99.90
2018-04-15T00:10:35.929Z,99.90
2018-04-15T00:13:03.420Z,99.90
2018-04-15T00:15:30.893Z,99.90
2018-04-15T00:17:59.129Z,99.90
2018-04-15T00:20:26.598Z,99.90
2018-04-15T00:22:54.048Z,99.90
2018-04-15T00:25:21.535Z,99.90
2018-04-15T00:27:49.768Z,99.90
2018-04-15T00:30:17.248Z,99.90
2018-04-15T00:32:44.728Z,99.90
2018-04-15T00:35:12.965Z,99.90
2018-04-15T00:37:40.430Z,99.90
2018-04-15T00:40:07.939Z,99.90
2018-04-15T00:42:35.415Z,99.90
2018-04-15T00:45:02.873Z,99.90
2018-04-15T00:47:30.343Z,99.90
2018-04-15T00:49:57.805Z,99.90
2018-04-15T00:52:25.283Z,99.90
2018-04-15T00:54:52.744Z,99.90
2018-04-15T00:57:20.230Z,99.90
2018-04-15T00:59:48.455Z,99.90
2018-04-15T01:02:16.060Z,99.90
2018-04-15T01:04:43.517Z,99.90
2018-04-15T01:07:10.994Z,99.90
2018-04-15T01:09:39.238Z,99.90
2018-04-15T01:12:06.730Z,99.90
2018-04-15T01:14:34.974Z,99.90
2018-04-15T01:17:02.445Z,99.90
2018-04-15T01:19:29.926Z,99.90
2018-04-15T01:21:58.160Z,99.90
2018-04-15T01:24:25.625Z,99.90
2018-04-15T01:26:53.089Z,99.90
2018-04-15T01:29:20.561Z,99.90
2018-04-15T01:31:48.032Z,99.90
2018-04-15T01:34:16.281Z,99.90
2018-04-15T01:36:43.742Z,99.90
2018-04-15T01:39:11.224Z,99.90
2018-04-15T01:41:39.449Z,99.90
2018-04-15T01:44:06.939Z,99.90
2018-04-15T01:46:34.409Z,99.90
2018-04-15T01:49:01.881Z,99.90
2018-04-15T01:51:30.132Z,99.90
2018-04-15T01:53:57.605Z,99.90
2018-04-15T01:56:25.851Z,99.90
2018-04-15T01:58:53.328Z,99.90
2018-04-15T02:01:20.788Z,99.90
2018-04-15T02:03:48.268Z,99.90
2018-04-15T02:06:16.592Z,99.90
2018-04-15T02:08:44.056Z,99.90
2018-04-15T02:11:11.523Z,99.90
2018-04-15T02:13:38.991Z,99.90
2018-04-15T02:16:06.490Z,99.90
2018-04-15T02:18:34.728Z,99.90
2018-04-15T02:21:02.206Z,99.90
2018-04-15T02:23:30.446Z,99.90
2018-04-15T02:25:57.935Z,99.90
2018-04-15T02:28:25.411Z,99.90
2018-04-15T02:30:53.653Z,99.90
2018-04-15T02:33:21.127Z,99.90
2018-04-15T02:35:49.096Z,99.90
2018-04-15T02:38:16.565Z,99.90
2018-04-15T02:40:44.821Z,99.90
2018-04-15T02:43:12.282Z,99.90
2018-04-15T02:45:39.760Z,99.90
2018-04-15T02:48:08.015Z,99.90
2018-04-15T02:50:35.520Z,99.90
2018-04-15T02:53:03.007Z,99.90
2018-04-15T02:55:30.487Z,99.90
2018-04-15T02:57:57.952Z,99.90
2018-04-15T03:00:25.416Z,99.90
2018-04-15T03:02:52.985Z,99.90
2018-04-15T03:05:20.480Z,99.90
2018-04-15T03:07:47.949Z,99.90
2018-04-15T03:10:15.425Z,99.90
2018-04-15T03:12:42.895Z,99.90
2018-04-15T03:15:10.360Z,99.90
2018-04-15T03:17:37.852Z,99.90
2018-04-15T03:20:06.092Z,99.90
2018-04-15T03:22:33.582Z,99.90
2018-04-15T03:25:01.854Z,99.90
2018-04-15T03:27:30.090Z,99.90
2018-04-15T03:29:57.548Z,99.90
2018-04-15T03:32:25.042Z,99.90
2018-04-15T03:34:52.510Z,99.90
2018-04-15T03:37:20.747Z,99.90
2018-04-15T03:39:48.231Z,99.90
2018-04-15T03:42:15.729Z,99.90
2018-04-15T03:44:43.189Z,99.90
2018-04-15T03:47:10.661Z,99.90
2018-04-15T03:49:38.132Z,99.90
2018-04-15T03:52:05.599Z,99.90
2018-04-15T03:54:33.074Z,99.90
2018-04-15T03:57:01.331Z,99.90
2018-04-15T03:59:28.802Z,99.90
2018-04-15T04:01:56.275Z,99.90
2018-04-15T04:04:23.785Z,99.90
2018-04-15T04:06:51.292Z,99.90
2018-04-15T04:09:18.772Z,99.90
2018-04-15T04:11:47.042Z,99.90
2018-04-15T04:14:15.276Z,99.90
2018-04-15T04:16:42.782Z,99.90
2018-04-15T04:19:22.919Z,99.90
2018-04-15T04:22:02.312Z,99.90
2018-04-15T04:24:42.635Z,99.90
2018-04-15T04:27:10.858Z,99.90
2018-04-15T04:29:38.321Z,99.90
2018-04-15T04:32:05.801Z,99.90
2018-04-15T04:34:33.264Z,99.90
2018-04-15T04:37:00.726Z,99.90
2018-04-15T04:39:28.216Z,99.90
2018-04-15T04:41:55.674Z,99.90
2018-04-15T04:44:23.138Z,99.90
2018-04-15T04:46:50.593Z,99.90
2018-04-15T04:49:18.155Z,99.90
2018-04-15T04:51:45.630Z,99.90
2018-04-15T04:54:13.116Z,99.90
2018-04-15T04:56:40.585Z,99.90
2018-04-15T04:59:08.048Z,99.90
2018-04-15T05:01:36.306Z,99.90
2018-04-15T05:04:03.807Z,99.90
2018-04-15T05:06:32.092Z,99.90
2018-04-15T05:09:00.328Z,99.90
2018-04-15T05:11:27.800Z,99.90
2018-04-15T05:13:55.317Z,99.90
2018-04-15T05:16:22.810Z,99.90
2018-04-15T05:18:50.281Z,99.90
2018-04-15T05:21:18.120Z,99.90
2018-04-15T05:23:45.597Z,99.90
2018-04-15T05:26:13.980Z,99.90
2018-04-15T05:28:42.360Z,99.90
2018-04-15T05:31:09.845Z,99.90
2018-04-15T05:33:38.064Z,99.90
2018-04-15T05:36:05.559Z,99.90
2018-04-15T05:38:33.040Z,99.90
2018-04-15T05:41:01.270Z,99.90
2018-04-15T05:43:28.761Z,99.90
2018-04-15T05:45:56.219Z,99.90
2018-04-15T05:48:25.467Z,99.90
2018-04-15T05:50:52.954Z,99.90
2018-04-15T05:53:20.629Z,99.90
2018-04-15T05:55:48.136Z,99.90
2018-04-15T05:58:15.668Z,99.90
2018-04-15T06:00:43.945Z,99.90
2018-04-15T06:03:12.228Z,99.90
2018-04-15T06:05:39.715Z,99.90
2018-04-15T06:08:07.236Z,99.90
2018-04-15T06:10:35.479Z,99.90
2018-04-15T06:13:03.019Z,99.90
2018-04-15T06:15:30.493Z,99.90
2018-04-15T06:17:58.871Z,99.90
2018-04-15T06:20:26.810Z,99.90
2018-04-15T06:22:54.292Z,99.90
2018-04-15T06:25:21.754Z,99.90
2018-04-15T06:27:49.246Z,99.90
2018-04-15T06:30:16.744Z,99.90
2018-04-15T06:32:44.227Z,99.90
2018-04-15T06:35:11.762Z,99.90
2018-04-15T06:37:39.251Z,99.90
2018-04-15T06:40:06.730Z,99.90
2018-04-15T06:42:34.300Z,99.90
2018-04-15T06:45:01.793Z,99.90
2018-04-15T06:47:29.285Z,99.90
2018-04-15T06:49:56.806Z,99.90
2018-04-15T06:52:25.040Z,99.90
2018-04-15T06:54:52.510Z,99.90
2018-04-15T06:57:19.980Z,99.90
2018-04-15T06:59:48.239Z,99.90
2018-04-15T07:02:15.720Z,99.90
2018-04-15T07:04:43.996Z,99.90
2018-04-15T07:07:12.274Z,99.90
2018-04-15T07:09:40.538Z,99.90
2018-04-15T07:12:08.012Z,99.90
2018-04-15T07:14:36.238Z,99.90
2018-04-15T07:17:03.736Z,99.90
2018-04-15T07:19:31.209Z,99.90
2018-04-15T07:21:59.440Z,99.90
2018-04-15T07:24:26.894Z,99.90
2018-04-15T07:26:54.406Z,99.90
2018-04-15T07:29:22.013Z,99.90
2018-04-15T07:31:49.509Z,99.90
2018-04-15T07:34:17.023Z,99.90
2018-04-15T07:36:44.503Z,99.90
2018-04-15T07:39:11.971Z,99.90
2018-04-15T07:41:39.519Z,99.90
2018-04-15T07:44:07.006Z,99.90
2018-04-15T07:46:34.482Z,99.90
2018-04-15T07:49:01.959Z,99.90
2018-04-15T07:51:29.444Z,99.90
2018-04-15T07:53:56.905Z,99.90
2018-04-15T07:56:24.418Z,99.90
2018-04-15T07:58:52.656Z,98.20
2018-04-15T08:01:20.173Z,98.30
2018-04-15T08:03:47.654Z,99.30
2018-04-15T08:06:15.312Z,98.10
2018-04-15T08:08:42.782Z,97.70
2018-04-15T08:11:10.308Z,98.70
2018-04-15T08:13:37.780Z,96.00
2018-04-15T08:16:05.240Z,96.90
2018-04-15T08:18:32.722Z,97.00
2018-04-15T08:21:00.226Z,96.30
2018-04-15T08:23:28.466Z,91.00
2018-04-15T08:25:55.975Z,90.90
2018-04-15T08:28:23.617Z,90.00
2018-04-15T08:30:51.085Z,87.20
2018-04-15T08:33:18.636Z,90.40
2018-04-15T08:35:46.917Z,84.60
2018-04-15T08:38:15.167Z,82.30
2018-04-15T08:40:42.665Z,82.30
2018-04-15T08:43:10.168Z,90.50
2018-04-15T08:45:37.713Z,90.10
2018-04-15T08:48:05.281Z,94.40
2018-04-15T08:50:33.639Z,96.30
2018-04-15T08:53:01.109Z,99.40
2018-04-15T08:55:28.628Z,99.90
2018-04-15T08:57:56.911Z,99.90
2018-04-15T09:00:25.177Z,99.90
2018-04-15T09:02:53.414Z,99.90
2018-04-15T09:05:20.930Z,99.90
2018-04-15T09:07:48.418Z,99.90
2018-04-15T09:10:15.897Z,99.90
2018-04-15T09:12:43.436Z,99.90
2018-04-15T09:15:10.918Z,99.90
2018-04-15T09:17:38.382Z,99.90
2018-04-15T09:20:05.845Z,99.90
2018-04-15T09:22:33.322Z,99.90
2018-04-15T09:25:01.582Z,99.90
2018-04-15T09:27:29.114Z,99.90
2018-04-15T09:29:56.588Z,99.90
2018-04-15T09:32:24.075Z,99.90
2018-04-15T09:34:52.516Z,99.90
2018-04-15T09:37:20.023Z,99.90
2018-04-15T09:39:48.261Z,96.70
2018-04-15T09:42:15.764Z,96.70
2018-04-15T09:44:43.245Z,92.60
2018-04-15T09:47:10.725Z,88.40
2018-04-15T09:49:38.197Z,85.70
2018-04-15T09:52:05.892Z,85.40
2018-04-15T09:54:34.198Z,89.20
2018-04-15T09:57:01.671Z,89.40
2018-04-15T09:59:29.153Z,86.60
2018-04-15T10:01:56.631Z,81.80
2018-04-15T10:04:24.119Z,79.60
2018-04-15T10:06:52.344Z,74.80
2018-04-15T10:09:19.836Z,74.80
2018-04-15T10:11:47.293Z,68.70
2018-04-15T10:14:15.665Z,64.00
2018-04-15T10:16:45.456Z,63.20
2018-04-15T10:19:12.980Z,64.90
2018-04-15T10:21:40.486Z,66.20
2018-04-15T10:24:08.086Z,65.90
2018-04-15T10:26:36.483Z,64.00
2018-04-15T10:29:04.874Z,59.30
2018-04-15T10:31:32.360Z,59.50
2018-04-15T10:33:59.835Z,59.20
2018-04-15T10:36:27.300Z,59.80
2018-04-15T10:38:55.595Z,60.50
2018-04-15T10:41:23.848Z,59.50
2018-04-15T10:43:53.390Z,59.50
2018-04-15T10:46:21.219Z,56.90
2018-04-15T10:48:48.696Z,56.20
2018-04-15T10:51:20.237Z,56.70
2018-04-15T10:53:47.828Z,56.00
2018-04-15T10:56:15.348Z,55.50
2018-04-15T10:58:42.829Z,54.30
2018-04-15T11:01:11.120Z,57.80
2018-04-15T11:03:39.357Z,58.90
2018-04-15T11:06:06.855Z,58.90
2018-04-15T11:08:35.117Z,58.40
2018-04-15T11:11:03.383Z,58.40
2018-04-15T11:13:31.705Z,56.30
2018-04-15T11:15:59.178Z,56.10
2018-04-15T11:18:26.715Z,57.30
2018-04-15T11:20:54.190Z,58.20
2018-04-15T11:23:21.771Z,58.50
2018-04-15T11:25:49.234Z,62.20
2018-04-15T11:28:17.481Z,62.40
2018-04-15T11:30:44.961Z,62.50
2018-04-15T11:33:12.438Z,61.90
2018-04-15T11:35:39.921Z,61.00
2018-04-15T11:38:08.160Z,63.20
2018-04-15T11:40:35.700Z,63.10
2018-04-15T11:43:03.305Z,65.10
2018-04-15T11:45:30.774Z,67.20
2018-04-15T11:47:59.104Z,68.40
2018-04-15T11:50:26.597Z,68.40
2018-04-15T11:52:54.157Z,67.80
2018-04-15T11:55:21.626Z,65.50
2018-04-15T11:57:49.148Z,66.80
2018-04-15T12:00:16.665Z,66.30
2018-04-15T12:02:44.203Z,67.50
2018-04-15T12:05:11.673Z,65.10
2018-04-15T12:07:39.928Z,64.60
2018-04-15T12:10:07.481Z,64.50
2018-04-15T12:12:34.932Z,64.20
2018-04-15T12:15:02.454Z,59.70
2018-04-15T12:17:30.040Z,59.50
2018-04-15T12:19:57.505Z,59.70
2018-04-15T12:22:25.085Z,59.50
2018-04-15T12:24:52.569Z,59.60
2018-04-15T12:27:20.799Z,60.40
2018-04-15T12:29:48.308Z,60.40
2018-04-15T12:32:16.544Z,62.90
2018-04-15T12:34:44.831Z,65.30
2018-04-15T12:37:12.350Z,65.20
2018-04-15T12:39:39.877Z,66.90
2018-04-15T12:42:08.110Z,64.20
2018-04-15T12:44:35.597Z,64.20
2018-04-15T12:47:03.061Z,62.10
2018-04-15T12:49:30.589Z,62.90
2018-04-15T12:51:58.079Z,62.70
2018-04-15T12:54:25.581Z,61.80
2018-04-15T12:56:53.071Z,62.70
2018-04-15T12:59:20.597Z,61.80
2018-04-15T13:01:48.090Z,61.60
2018-04-15T13:04:15.563Z,62.00
2018-04-15T13:06:43.041Z,63.30
2018-04-15T13:09:10.540Z,63.50
2018-04-15T13:11:38.016Z,62.40
2018-04-15T13:14:05.480Z,62.70
2018-04-15T13:16:32.961Z,63.70
2018-04-15T13:19:00.427Z,64.80
2018-04-15T13:21:28.701Z,65.80
2018-04-15T13:23:56.994Z,66.20
2018-04-15T13:26:25.236Z,65.50
2018-04-15T13:28:52.801Z,65.50
2018-04-15T13:31:20.241Z,67.70
2018-04-15T13:33:47.832Z,69.60
2018-04-15T13:36:15.304Z,71.20
2018-04-15T13:38:43.548Z,72.70
2018-04-15T13:41:11.021Z,72.70
2018-04-15T13:43:38.500Z,74.50
2018-04-15T13:46:06.750Z,77.40
2018-04-15T13:48:34.259Z,77.30
2018-04-15T13:51:01.731Z,78.50
2018-04-15T13:53:29.264Z,80.70
2018-04-15T13:55:57.544Z,88.90
2018-04-15T13:58:25.779Z,92.00
2018-04-15T14:00:53.253Z,92.10
2018-04-15T14:03:20.730Z,94.90
2018-04-15T14:05:49.501Z,98.80
2018-04-15T14:08:17.782Z,99.90
2018-04-15T14:10:45.288Z,99.90
2018-04-15T14:13:12.765Z,99.90
2018-04-15T14:15:40.258Z,99.90
2018-04-15T14:18:08.035Z,99.90
2018-04-15T14:20:36.311Z,99.90
2018-04-15T14:23:04.536Z,99.90
2018-04-15T14:25:32.052Z,99.90
2018-04-15T14:27:59.549Z,99.90
2018-04-15T14:30:27.049Z,99.90
2018-04-15T14:32:54.518Z,99.90
2018-04-15T14:35:22.856Z,99.90
2018-04-15T14:37:50.396Z,99.90
2018-04-15T14:40:17.921Z,99.90
2018-04-15T14:42:46.169Z,99.90
2018-04-15T14:45:13.677Z,99.90
2018-04-15T14:47:41.896Z,99.90
2018-04-15T14:50:09.434Z,99.90
2018-04-15T14:52:37.659Z,99.90
2018-04-15T14:55:05.225Z,99.90
2018-04-15T14:57:32.776Z,99.90
2018-04-15T15:00:00.549Z,99.90
2018-04-15T15:02:28.162Z,99.90
2018-04-15T15:04:55.629Z,99.90
2018-04-15T15:07:23.102Z,99.90
2018-04-15T15:09:50.626Z,99.90
2018-04-15T15:12:18.115Z,99.90
2018-04-15T15:14:45.586Z,99.90
2018-04-15T15:17:13.069Z,99.90
2018-04-15T15:19:41.631Z,99.90
2018-04-15T15:22:10.369Z,99.90
2018-04-15T15:24:37.919Z,99.90
2018-04-15T15:27:06.262Z,99.90
2018-04-15T15:29:33.886Z,99.90
2018-04-15T15:32:01.397Z,99.90
2018-04-15T15:34:28.898Z,99.90
2018-04-15T15:36:56.550Z,99.90
2018-04-15T15:39:24.070Z,99.90
2018-04-15T15:41:51.545Z,99.90
2018-04-15T15:44:19.029Z,99.90
2018-04-15T15:46:46.527Z,99.90
2018-04-15T15:49:14.029Z,99.90
2018-04-15T15:51:43.081Z,99.90
2018-04-15T15:54:21.132Z,99.90
2018-04-15T15:56:57.394Z,99.90
2018-04-15T15:59:32.414Z,99.90
2018-04-15T16:02:10.349Z,99.90
2018-04-15T16:07:24.355Z,99.90
2018-04-15T16:10:09.141Z,99.90
2018-04-15T16:15:49.387Z,99.90
2018-04-15T16:21:19.255Z,99.90
2018-04-15T16:27:16.162Z,99.90
2018-04-15T16:29:46.647Z,99.90
2018-04-15T16:32:21.116Z,99.90
2018-04-15T16:34:50.619Z,99.90
2018-04-15T16:37:20.589Z,99.90
2018-04-15T16:42:31.937Z,99.90
2018-04-15T16:45:01.549Z,99.90
2018-04-15T16:47:30.079Z,99.90
2018-04-15T16:49:59.690Z,99.90
2018-04-15T16:52:32.374Z,99.90
2018-04-15T16:55:01.007Z,99.90
2018-04-15T16:57:33.521Z,99.90
2018-04-15T17:00:06.235Z,99.90
2018-04-15T17:02:38.887Z,99.90
2018-04-15T17:05:10.800Z,99.90
2018-04-15T17:07:39.543Z,99.90
2018-04-15T17:10:08.894Z,99.90
2018-04-15T17:12:36.557Z,99.90
2018-04-15T17:15:06.258Z,99.90
2018-04-15T17:17:36.492Z,99.90
2018-04-15T17:20:08.952Z,99.90
2018-04-15T17:22:43.532Z,99.90
2018-04-15T17:25:20.850Z,99.90
2018-04-15T17:27:49.241Z,99.90
2018-04-15T17:30:22.662Z,99.90
2018-04-15T17:32:51.657Z,99.90
2018-04-15T17:35:21.193Z,99.90
2018-04-15T17:37:49.265Z,99.90
2018-04-15T17:40:21.209Z,99.90
2018-04-15T17:42:50.494Z,99.90
2018-04-15T17:45:20.819Z,99.90
2018-04-15T17:47:52.854Z,99.90
2018-04-15T17:50:29.221Z,99.90
2018-04-15T17:52:59.007Z,99.90
2018-04-15T17:58:07.089Z,99.90
2018-04-15T18:00:34.591Z,99.90
2018-04-15T18:03:02.233Z,99.90
2018-04-15T18:05:29.730Z,99.90
2018-04-15T18:07:57.205Z,99.90
2018-04-15T18:10:24.681Z,99.90
2018-04-15T18:12:52.153Z,99.90
2018-04-15T18:15:19.643Z,99.90
2018-04-15T18:17:47.177Z,99.90
2018-04-15T18:20:14.793Z,99.90
2018-04-15T18:22:42.277Z,99.90
2018-04-15T18:25:10.602Z,99.90
2018-04-15T18:27:38.281Z,99.90
2018-04-15T18:30:07.831Z,99.90
2018-04-15T18:32:35.387Z,99.90
2018-04-15T18:35:02.918Z,99.90
2018-04-15T18:37:30.433Z,99.90
2018-04-15T18:39:57.936Z,99.90
2018-04-15T18:42:25.489Z,99.90
2018-04-15T18:44:53.199Z,99.90
2018-04-15T18:47:20.652Z,99.90
2018-04-15T18:49:48.124Z,99.90
2018-04-15T18:52:16.694Z,99.90
2018-04-15T18:54:44.195Z,99.90
2018-04-15T18:57:11.698Z,99.90
2018-04-15T18:59:39.289Z,99.90
2018-04-15T19:02:06.805Z,99.90
2018-04-15T19:04:34.543Z,99.90
2018-04-15T19:07:02.035Z,99.90
2018-04-15T19:09:30.442Z,99.90
2018-04-15T19:11:57.972Z,99.90
2018-04-15T19:14:25.557Z,99.90
2018-04-15T19:16:53.827Z,99.90
2018-04-15T19:19:22.782Z,99.90
2018-04-15T19:21:50.253Z,99.90
2018-04-15T19:24:17.736Z,99.90
2018-04-15T19:26:46.003Z,99.90
2018-04-15T19:29:13.679Z,99.90
2018-04-15T19:31:42.035Z,99.90
2018-04-15T19:34:09.579Z,99.90
2018-04-15T19:36:37.164Z,99.90
2018-04-15T19:39:04.794Z,99.90
2018-04-15T19:41:35.157Z,99.90
2018-04-15T19:44:03.444Z,99.90
2018-04-15T19:46:31.694Z,99.90
2018-04-15T19:48:59.186Z,99.90
2018-04-15T19:51:27.464Z,99.90
2018-04-15T19:53:55.704Z,99.90
2018-04-15T19:56:23.197Z,99.90
2018-04-15T19:58:51.475Z,99.90
2018-04-15T20:01:19.729Z,99.90
2018-04-15T20:03:47.237Z,99.90
2018-04-15T20:06:14.738Z,99.90
2018-04-15T20:08:42.206Z,99.90
2018-04-15T20:11:09.857Z,99.90
2018-04-15T20:13:37.407Z,99.90
2018-04-15T20:16:05.096Z,99.90
2018-04-15T20:18:33.487Z,99.90
2018-04-15T20:21:01.919Z,99.90
2018-04-15T20:23:29.407Z,99.90
2018-04-15T20:25:58.414Z,99.90
2018-04-15T20:28:25.909Z,99.90
2018-04-15T20:30:53.390Z,99.90
2018-04-15T20:33:20.879Z,99.90
2018-04-15T20:35:48.366Z,99.90
2018-04-15T20:38:16.613Z,99.90
2018-04-15T20:40:44.129Z,99.90
2018-04-15T20:43:11.621Z,99.90
2018-04-15T20:45:39.115Z,99.90
2018-04-15T20:48:07.537Z,99.90
2018-04-15T20:50:35.031Z,99.90
2018-04-15T20:53:02.532Z,99.90
2018-04-15T20:55:30.018Z,99.90
2018-04-15T20:57:57.484Z,99.90
2018-04-15T21:00:24.971Z,99.90
2018-04-15T21:02:52.454Z,99.90
2018-04-15T21:05:19.922Z,99.90
2018-04-15T21:07:47.385Z,99.90
2018-04-15T21:10:14.864Z,99.90
2018-04-15T21:12:42.329Z,99.90
2018-04-15T21:15:09.811Z,99.90
2018-04-15T21:17:37.291Z,99.90
2018-04-15T21:20:04.770Z,99.90
2018-04-15T21:22:32.236Z,99.90
2018-04-15T21:24:59.697Z,99.90
2018-04-15T21:27:27.508Z,99.90
2018-04-15T21:29:54.980Z,99.90
2018-04-15T21:32:22.437Z,99.90
2018-04-15T21:34:49.945Z,99.90
2018-04-15T21:37:17.411Z,99.90
2018-04-15T21:39:44.905Z,99.90
2018-04-15T21:42:12.376Z,99.90
2018-04-15T21:44:39.862Z,99.90
2018-04-15T21:47:07.347Z,99.90
2018-04-15T21:49:34.834Z,99.90
2018-04-15T21:52:02.341Z,99.90
2018-04-15T21:54:32.729Z,99.90
2018-04-15T21:57:00.216Z,99.90
2018-04-15T21:59:28.468Z,99.90
2018-04-15T22:01:55.949Z,99.90
2018-04-15T22:04:24.197Z,99.90
2018-04-15T22:06:51.736Z,99.90
2018-04-15T22:09:19.202Z,99.90
2018-04-15T22:11:58.734Z,99.90
2018-04-15T22:14:26.226Z,99.90
2018-04-15T22:16:53.832Z,99.90
2018-04-15T22:19:21.322Z,99.90
2018-04-15T22:21:48.850Z,99.90
2018-04-15T22:24:16.374Z,99.90
2018-04-15T22:26:44.637Z,99.90
2018-04-15T22:29:12.107Z,99.90
2018-04-15T22:31:39.609Z,99.90
2018-04-15T22:34:07.078Z,99.90
2018-04-15T22:36:34.690Z,99.90
2018-04-15T22:39:02.973Z,99.90
2018-04-15T22:41:31.281Z,99.90
2018-04-15T22:43:58.763Z,99.90
2018-04-15T22:46:26.304Z,99.90
2018-04-15T22:48:56.729Z,99.90
2018-04-15T22:51:24.255Z,99.90
2018-04-15T22:53:51.725Z,99.90
2018-04-15T22:56:19.979Z,99.90
2018-04-15T22:58:47.448Z,99.90
2018-04-15T23:01:15.699Z,99.90
2018-04-15T23:03:43.174Z,99.90
2018-04-15T23:06:10.680Z,99.90
2018-04-15T23:08:38.155Z,99.90
2018-04-15T23:11:05.619Z,99.90
2018-04-15T23:13:33.105Z,99.90
2018-04-15T23:16:01.189Z,99.90
2018-04-15T23:18:29.454Z,99.90
2018-04-15T23:20:56.925Z,99.90
2018-04-15T23:23:25.172Z,99.90
2018-04-15T23:25:52.709Z,99.90
2018-04-15T23:28:20.224Z,99.90
2018-04-15T23:30:48.452Z,99.90
2018-04-15T23:33:15.917Z,99.90
2018-04-15T23:35:43.392Z,99.90
2018-04-15T23:38:10.923Z,99.90
2018-04-15T23:40:38.391Z,99.90
2018-04-15T23:43:05.843Z,99.90
2018-04-15T23:45:33.312Z,99.90
2018-04-15T23:48:00.782Z,99.90
2018-04-15T23:50:29.067Z,99.90
2018-04-15T23:52:56.545Z,99.90
2018-04-15T23:55:24.782Z,99.90
2018-04-15T23:57:52.327Z,99.90
